sensor_id;sensor_type;location;lat;lon;timestamp;pressure;altitude;pressure_sealevel;temperature;humidity
250;BME280;109;19.806;-70.704;2023-05-17T00:00:25;101332.56;;;26.35;62.34
250;BME280;109;19.806;-70.704;2023-05-17T00:02:52;101346.06;;;26.34;63.37
250;BME280;109;19.806;-70.704;2023-05-17T00:05:18;101347.56;;;26.22;63.65
250;BME280;109;19.806;-70.704;2023-05-17T00:07:45;101342.66;;;26.30;63.34
250;BME280;109;19.806;-70.704;2023-05-17T00:10:12;101341.97;;;26.27;63.07
250;BME280;109;19.806;-70.704;2023-05-17T00:12:38;101349.28;;;26.23;62.40
250;BME280;109;19.806;-70.704;2023-05-17T00:15:05;101346.38;;;26.10;63.62
250;BME280;109;19.806;-70.704;2023-05-17T00:17:32;101358.03;;;26.09;63.57
250;BME280;109;19.806;-70.704;2023-05-17T00:19:58;101367.56;;;25.98;63.54
250;BME280;109;19.806;-70.704;2023-05-17T00:22:25;101369.53;;;25.94;64.02
250;BME280;109;19.806;-70.704;2023-05-17T00:24:51;101367.22;;;25.87;63.93
250;BME280;109;19.806;-70.704;2023-05-17T00:27:18;101363.59;;;25.88;63.81
250;BME280;109;19.806;-70.704;2023-05-17T00:29:44;101362.72;;;25.87;64.56
250;BME280;109;19.806;-70.704;2023-05-17T00:32:10;101367.34;;;25.84;64.86
250;BME280;109;19.806;-70.704;2023-05-17T00:34:37;101371.81;;;25.83;64.98
250;BME280;109;19.806;-70.704;2023-05-17T00:37:03;101374.16;;;25.91;64.62
250;BME280;109;19.806;-70.704;2023-05-17T00:39:30;101375.09;;;25.90;65.10
250;BME280;109;19.806;-70.704;2023-05-17T00:41:57;101380.72;;;26.02;64.99
250;BME280;109;19.806;-70.704;2023-05-17T00:44:23;101370.84;;;25.86;64.96
250;BME280;109;19.806;-70.704;2023-05-17T00:46:50;101371.03;;;25.81;64.87
250;BME280;109;19.806;-70.704;2023-05-17T00:49:23;101370.69;;;25.70;65.52
250;BME280;109;19.806;-70.704;2023-05-17T00:51:50;101383.59;;;25.62;65.13
250;BME280;109;19.806;-70.704;2023-05-17T00:54:24;101389.09;;;25.59;65.70
250;BME280;109;19.806;-70.704;2023-05-17T00:56:52;101386.94;;;25.48;66.33
250;BME280;109;19.806;-70.704;2023-05-17T00:59:25;101392.50;;;25.43;65.32
250;BME280;109;19.806;-70.704;2023-05-17T01:01:53;101400.47;;;25.45;65.65
250;BME280;109;19.806;-70.704;2023-05-17T01:04:26;101404.81;;;25.48;65.82
250;BME280;109;19.806;-70.704;2023-05-17T01:06:53;101409.38;;;25.45;65.21
250;BME280;109;19.806;-70.704;2023-05-17T01:09:26;101415.06;;;25.38;66.46
250;BME280;109;19.806;-70.704;2023-05-17T01:17:39;101409.66;;;25.39;66.47
250;BME280;109;19.806;-70.704;2023-05-17T01:20:15;101396.91;;;25.24;66.75
250;BME280;109;19.806;-70.704;2023-05-17T01:23:00;101399.00;;;25.38;66.01
250;BME280;109;19.806;-70.704;2023-05-17T01:28:30;101418.06;;;25.51;65.80
250;BME280;109;19.806;-70.704;2023-05-17T01:30:57;101413.81;;;25.47;65.64
250;BME280;109;19.806;-70.704;2023-05-17T01:33:34;101417.63;;;25.41;65.57
250;BME280;109;19.806;-70.704;2023-05-17T01:36:01;101424.22;;;25.34;65.82
250;BME280;109;19.806;-70.704;2023-05-17T01:38:42;101432.97;;;25.37;65.79
250;BME280;109;19.806;-70.704;2023-05-17T01:41:37;101422.94;;;25.22;66.16
250;BME280;109;19.806;-70.704;2023-05-17T01:47:12;101430.22;;;25.19;65.94
250;BME280;109;19.806;-70.704;2023-05-17T01:49:53;101435.53;;;25.20;66.06
250;BME280;109;19.806;-70.704;2023-05-17T01:53:28;101449.50;;;25.27;65.80
250;BME280;109;19.806;-70.704;2023-05-17T01:55:43;101450.59;;;25.23;66.15
250;BME280;109;19.806;-70.704;2023-05-17T01:58:20;101460.44;;;25.22;65.69
250;BME280;109;19.806;-70.704;2023-05-17T02:00:55;101461.13;;;25.07;65.62
250;BME280;109;19.806;-70.704;2023-05-17T02:03:23;101459.09;;;25.12;65.76
250;BME280;109;19.806;-70.704;2023-05-17T02:05:56;101453.16;;;25.05;65.67
250;BME280;109;19.806;-70.704;2023-05-17T02:08:23;101449.91;;;24.97;65.73
250;BME280;109;19.806;-70.704;2023-05-17T02:10:56;101456.16;;;24.98;65.53
250;BME280;109;19.806;-70.704;2023-05-17T02:13:23;101457.75;;;25.02;65.70
250;BME280;109;19.806;-70.704;2023-05-17T02:16:00;101449.06;;;24.97;65.84
250;BME280;109;19.806;-70.704;2023-05-17T02:18:33;101447.03;;;25.02;66.08
250;BME280;109;19.806;-70.704;2023-05-17T02:21:00;101443.94;;;25.11;65.50
250;BME280;109;19.806;-70.704;2023-05-17T02:23:35;101441.50;;;25.06;65.98
250;BME280;109;19.806;-70.704;2023-05-17T02:26:01;101444.38;;;25.02;65.67
250;BME280;109;19.806;-70.704;2023-05-17T02:28:34;101448.78;;;25.03;65.50
250;BME280;109;19.806;-70.704;2023-05-17T02:31:02;101449.84;;;24.99;65.21
250;BME280;109;19.806;-70.704;2023-05-17T02:33:35;101452.53;;;24.99;65.39
250;BME280;109;19.806;-70.704;2023-05-17T02:36:09;101445.91;;;24.87;65.21
250;BME280;109;19.806;-70.704;2023-05-17T02:38:44;101449.47;;;24.88;64.70
250;BME280;109;19.806;-70.704;2023-05-17T02:41:32;101459.78;;;24.97;64.32
250;BME280;109;19.806;-70.704;2023-05-17T02:44:05;101453.41;;;24.99;64.17
250;BME280;109;19.806;-70.704;2023-05-17T02:46:31;101457.00;;;24.98;64.34
250;BME280;109;19.806;-70.704;2023-05-17T02:49:04;101452.53;;;24.99;63.69
250;BME280;109;19.806;-70.704;2023-05-17T02:51:31;101457.78;;;24.82;63.87
250;BME280;109;19.806;-70.704;2023-05-17T02:54:04;101462.19;;;24.83;64.28
250;BME280;109;19.806;-70.704;2023-05-17T02:56:30;101458.41;;;24.87;63.71
250;BME280;109;19.806;-70.704;2023-05-17T02:59:11;101460.84;;;24.93;64.15
250;BME280;109;19.806;-70.704;2023-05-17T03:01:44;101463.19;;;25.00;64.31
250;BME280;109;19.806;-70.704;2023-05-17T03:04:11;101452.91;;;25.10;63.69
250;BME280;109;19.806;-70.704;2023-05-17T03:06:45;101452.78;;;25.13;63.97
250;BME280;109;19.806;-70.704;2023-05-17T03:09:12;101447.25;;;25.18;63.75
250;BME280;109;19.806;-70.704;2023-05-17T03:11:49;101453.41;;;25.20;63.61
250;BME280;109;19.806;-70.704;2023-05-17T03:14:26;101454.75;;;25.30;63.34
250;BME280;109;19.806;-70.704;2023-05-17T03:16:59;101456.09;;;25.20;63.81
250;BME280;109;19.806;-70.704;2023-05-17T03:19:26;101448.53;;;25.09;63.77
250;BME280;109;19.806;-70.704;2023-05-17T03:21:59;101448.09;;;24.98;64.17
250;BME280;109;19.806;-70.704;2023-05-17T03:24:26;101445.59;;;24.95;64.25
250;BME280;109;19.806;-70.704;2023-05-17T03:27:00;101441.47;;;24.86;64.77
250;BME280;109;19.806;-70.704;2023-05-17T03:29:26;101436.75;;;24.93;64.67
250;BME280;109;19.806;-70.704;2023-05-17T03:32:00;101436.88;;;24.90;64.77
250;BME280;109;19.806;-70.704;2023-05-17T03:34:27;101434.25;;;24.88;64.43
250;BME280;109;19.806;-70.704;2023-05-17T03:37:01;101433.78;;;24.79;64.54
250;BME280;109;19.806;-70.704;2023-05-17T03:39:27;101439.97;;;24.81;64.12
250;BME280;109;19.806;-70.704;2023-05-17T03:42:00;101432.19;;;24.74;64.42
250;BME280;109;19.806;-70.704;2023-05-17T03:44:41;101433.75;;;24.80;64.47
250;BME280;109;19.806;-70.704;2023-05-17T03:47:07;101428.56;;;24.75;64.38
250;BME280;109;19.806;-70.704;2023-05-17T03:49:48;101418.53;;;24.81;64.48
250;BME280;109;19.806;-70.704;2023-05-17T03:52:22;101416.88;;;24.78;64.41
250;BME280;109;19.806;-70.704;2023-05-17T03:54:48;101421.47;;;24.74;64.33
250;BME280;109;19.806;-70.704;2023-05-17T03:57:22;101422.34;;;24.75;64.20
250;BME280;109;19.806;-70.704;2023-05-17T03:59:49;101419.59;;;24.77;63.83
250;BME280;109;19.806;-70.704;2023-05-17T04:02:22;101424.47;;;24.67;64.45
250;BME280;109;19.806;-70.704;2023-05-17T04:04:52;101421.84;;;24.65;64.56
250;BME280;109;19.806;-70.704;2023-05-17T04:07:25;101421.97;;;24.62;64.27
250;BME280;109;19.806;-70.704;2023-05-17T04:09:52;101427.31;;;24.62;64.43
250;BME280;109;19.806;-70.704;2023-05-17T04:12:28;101434.59;;;24.59;64.30
250;BME280;109;19.806;-70.704;2023-05-17T04:14:54;101424.06;;;24.56;64.06
250;BME280;109;19.806;-70.704;2023-05-17T04:17:27;101425.03;;;24.53;63.82
250;BME280;109;19.806;-70.704;2023-05-17T04:19:54;101432.88;;;24.58;63.36
250;BME280;109;19.806;-70.704;2023-05-17T04:22:27;101423.25;;;24.54;63.06
250;BME280;109;19.806;-70.704;2023-05-17T04:24:53;101428.59;;;24.54;62.85
250;BME280;109;19.806;-70.704;2023-05-17T04:27:28;101418.19;;;24.46;63.05
250;BME280;109;19.806;-70.704;2023-05-17T04:29:54;101416.16;;;24.53;63.04
250;BME280;109;19.806;-70.704;2023-05-17T04:32:28;101414.28;;;24.55;62.18
250;BME280;109;19.806;-70.704;2023-05-17T04:34:56;101410.91;;;24.50;61.89
250;BME280;109;19.806;-70.704;2023-05-17T04:37:29;101416.53;;;24.44;62.15
250;BME280;109;19.806;-70.704;2023-05-17T04:40:01;101406.72;;;24.44;62.26
250;BME280;109;19.806;-70.704;2023-05-17T04:42:34;101409.06;;;24.52;62.36
250;BME280;109;19.806;-70.704;2023-05-17T04:45:14;101400.28;;;24.48;62.60
250;BME280;109;19.806;-70.704;2023-05-17T04:47:41;101391.13;;;24.54;62.86
250;BME280;109;19.806;-70.704;2023-05-17T04:50:22;101387.81;;;24.47;62.65
250;BME280;109;19.806;-70.704;2023-05-17T04:52:56;101380.31;;;24.57;62.63
250;BME280;109;19.806;-70.704;2023-05-17T04:55:23;101377.81;;;24.52;62.88
250;BME280;109;19.806;-70.704;2023-05-17T04:57:56;101372.84;;;24.43;63.21
250;BME280;109;19.806;-70.704;2023-05-17T05:00:24;101372.84;;;24.43;63.48
250;BME280;109;19.806;-70.704;2023-05-17T05:03:02;101360.88;;;24.52;63.39
250;BME280;109;19.806;-70.704;2023-05-17T05:05:36;101366.03;;;24.56;63.48
250;BME280;109;19.806;-70.704;2023-05-17T05:08:10;101361.34;;;24.61;63.31
250;BME280;109;19.806;-70.704;2023-05-17T05:10:45;101351.91;;;24.53;63.67
250;BME280;109;19.806;-70.704;2023-05-17T05:13:13;101346.38;;;24.57;63.54
250;BME280;109;19.806;-70.704;2023-05-17T05:15:46;101351.78;;;24.56;63.05
250;BME280;109;19.806;-70.704;2023-05-17T05:18:13;101350.97;;;24.54;63.13
250;BME280;109;19.806;-70.704;2023-05-17T05:20:47;101351.09;;;24.51;62.64
250;BME280;109;19.806;-70.704;2023-05-17T05:23:14;101342.91;;;24.55;62.95
250;BME280;109;19.806;-70.704;2023-05-17T05:25:48;101332.66;;;24.45;62.67
250;BME280;109;19.806;-70.704;2023-05-17T05:28:14;101332.66;;;24.45;63.00
250;BME280;109;19.806;-70.704;2023-05-17T05:30:48;101336.91;;;24.49;62.40
250;BME280;109;19.806;-70.704;2023-05-17T05:33:15;101327.78;;;24.54;62.65
250;BME280;109;19.806;-70.704;2023-05-17T05:35:48;101333.19;;;24.53;62.55
250;BME280;109;19.806;-70.704;2023-05-17T05:38:15;101327.91;;;24.51;62.93
250;BME280;109;19.806;-70.704;2023-05-17T05:40:48;101324.28;;;24.52;63.05
250;BME280;109;19.806;-70.704;2023-05-17T05:43:29;101313.28;;;24.58;62.74
250;BME280;109;19.806;-70.704;2023-05-17T05:45:55;101313.16;;;24.61;63.03
250;BME280;109;19.806;-70.704;2023-05-17T05:48:28;101309.44;;;24.65;62.62
250;BME280;109;19.806;-70.704;2023-05-17T05:51:04;101314.03;;;24.62;63.00
250;BME280;109;19.806;-70.704;2023-05-17T05:53:40;101308.81;;;24.59;62.88
250;BME280;109;19.806;-70.704;2023-05-17T05:56:07;101304.56;;;24.55;63.11
250;BME280;109;19.806;-70.704;2023-05-17T05:58:41;101308.91;;;24.57;63.03
250;BME280;109;19.806;-70.704;2023-05-17T06:01:10;101319.50;;;24.59;63.16
250;BME280;109;19.806;-70.704;2023-05-17T06:03:43;101319.94;;;24.70;62.77
250;BME280;109;19.806;-70.704;2023-05-17T06:06:09;101315.59;;;24.67;62.86
250;BME280;109;19.806;-70.704;2023-05-17T06:08:51;101313.09;;;24.63;63.10
250;BME280;109;19.806;-70.704;2023-05-17T06:11:25;101313.91;;;24.65;62.88
250;BME280;109;19.806;-70.704;2023-05-17T06:13:51;101322.88;;;24.64;62.48
250;BME280;109;19.806;-70.704;2023-05-17T06:16:24;101328.91;;;24.69;62.45
250;BME280;109;19.806;-70.704;2023-05-17T06:18:50;101332.63;;;24.65;62.60
250;BME280;109;19.806;-70.704;2023-05-17T06:21:24;101329.63;;;24.52;61.91
250;BME280;109;19.806;-70.704;2023-05-17T06:23:51;101330.44;;;24.54;62.05
250;BME280;109;19.806;-70.704;2023-05-17T06:26:24;101328.56;;;24.56;62.23
250;BME280;109;19.806;-70.704;2023-05-17T06:28:51;101327.88;;;24.71;62.57
250;BME280;109;19.806;-70.704;2023-05-17T06:31:24;101317.19;;;24.51;63.52
250;BME280;109;19.806;-70.704;2023-05-17T06:33:51;101317.53;;;24.64;63.79
250;BME280;109;19.806;-70.704;2023-05-17T06:36:24;101320.94;;;24.67;64.76
250;BME280;109;19.806;-70.704;2023-05-17T06:38:51;101303.78;;;24.71;65.41
250;BME280;109;19.806;-70.704;2023-05-17T06:41:24;101309.06;;;24.73;66.13
250;BME280;109;19.806;-70.704;2023-05-17T06:44:04;101301.31;;;24.67;66.63
250;BME280;109;19.806;-70.704;2023-05-17T06:46:31;101300.00;;;24.57;65.74
250;BME280;109;19.806;-70.704;2023-05-17T06:49:04;101285.81;;;24.34;66.05
250;BME280;109;19.806;-70.704;2023-05-17T06:51:38;101275.28;;;24.31;66.63
250;BME280;109;19.806;-70.704;2023-05-17T06:54:11;101280.63;;;24.31;66.64
250;BME280;109;19.806;-70.704;2023-05-17T06:56:37;101282.44;;;24.31;66.62
250;BME280;109;19.806;-70.704;2023-05-17T06:59:10;101276.22;;;24.30;66.80
250;BME280;109;19.806;-70.704;2023-05-17T07:01:36;101285.16;;;24.29;67.98
250;BME280;109;19.806;-70.704;2023-05-17T07:04:10;101283.47;;;24.27;68.48
250;BME280;109;19.806;-70.704;2023-05-17T07:06:37;101278.81;;;24.32;68.66
250;BME280;109;19.806;-70.704;2023-05-17T07:09:19;101279.53;;;24.35;68.66
250;BME280;109;19.806;-70.704;2023-05-17T07:11:53;101274.25;;;24.34;69.01
250;BME280;109;19.806;-70.704;2023-05-17T07:14:20;101275.72;;;24.41;68.84
250;BME280;109;19.806;-70.704;2023-05-17T07:16:53;101266.38;;;24.31;68.89
250;BME280;109;19.806;-70.704;2023-05-17T07:19:19;101265.63;;;24.27;68.83
250;BME280;109;19.806;-70.704;2023-05-17T07:21:53;101267.56;;;24.24;69.13
250;BME280;109;19.806;-70.704;2023-05-17T07:24:20;101277.81;;;24.13;68.75
250;BME280;109;19.806;-70.704;2023-05-17T07:26:53;101272.41;;;24.14;69.08
250;BME280;109;19.806;-70.704;2023-05-17T07:29:20;101253.59;;;24.17;69.40
250;BME280;109;19.806;-70.704;2023-05-17T07:31:53;101255.13;;;24.23;69.41
250;BME280;109;19.806;-70.704;2023-05-17T07:34:20;101256.59;;;24.30;69.58
250;BME280;109;19.806;-70.704;2023-05-17T07:36:53;101247.16;;;24.21;69.38
250;BME280;109;19.806;-70.704;2023-05-17T07:39:20;101241.25;;;24.13;69.09
250;BME280;109;19.806;-70.704;2023-05-17T07:42:00;101234.16;;;24.12;68.78
250;BME280;109;19.806;-70.704;2023-05-17T07:44:39;101232.50;;;24.10;68.92
250;BME280;109;19.806;-70.704;2023-05-17T07:47:06;101231.63;;;24.09;69.39
250;BME280;109;19.806;-70.704;2023-05-17T07:49:39;101232.91;;;24.21;69.33
250;BME280;109;19.806;-70.704;2023-05-17T07:52:06;101238.44;;;24.18;69.54
250;BME280;109;19.806;-70.704;2023-05-17T07:54:39;101230.72;;;24.30;69.35
250;BME280;109;19.806;-70.704;2023-05-17T07:57:06;101219.34;;;24.25;69.22
250;BME280;109;19.806;-70.704;2023-05-17T07:59:39;101210.59;;;24.22;69.43
250;BME280;109;19.806;-70.704;2023-05-17T08:02:06;101202.19;;;24.09;69.40
250;BME280;109;19.806;-70.704;2023-05-17T08:04:39;101211.31;;;24.05;69.56
250;BME280;109;19.806;-70.704;2023-05-17T08:07:06;101207.41;;;24.12;69.50
250;BME280;109;19.806;-70.704;2023-05-17T08:09:39;101199.81;;;24.03;69.47
250;BME280;109;19.806;-70.704;2023-05-17T08:12:08;101191.22;;;24.17;68.74
250;BME280;109;19.806;-70.704;2023-05-17T08:14:41;101190.44;;;24.13;68.55
250;BME280;109;19.806;-70.704;2023-05-17T08:17:08;101193.03;;;24.16;68.49
250;BME280;109;19.806;-70.704;2023-05-17T08:19:41;101195.63;;;24.18;69.14
250;BME280;109;19.806;-70.704;2023-05-17T08:22:08;101195.22;;;24.27;69.29
250;BME280;109;19.806;-70.704;2023-05-17T08:24:41;101204.31;;;24.23;69.30
250;BME280;109;19.806;-70.704;2023-05-17T08:27:10;101201.63;;;24.23;69.25
250;BME280;109;19.806;-70.704;2023-05-17T08:29:43;101200.56;;;24.27;68.94
250;BME280;109;19.806;-70.704;2023-05-17T08:32:10;101203.50;;;24.21;68.84
250;BME280;109;19.806;-70.704;2023-05-17T08:34:43;101199.81;;;24.23;69.28
250;BME280;109;19.806;-70.704;2023-05-17T08:37:10;101191.72;;;24.25;69.46
250;BME280;109;19.806;-70.704;2023-05-17T08:39:50;101196.34;;;24.21;68.88
250;BME280;109;19.806;-70.704;2023-05-17T08:42:29;101192.25;;;24.13;69.21
250;BME280;109;19.806;-70.704;2023-05-17T08:44:57;101203.00;;;24.11;68.85
250;BME280;109;19.806;-70.704;2023-05-17T08:47:31;101204.75;;;24.12;68.60
250;BME280;109;19.806;-70.704;2023-05-17T08:49:59;101208.41;;;24.10;68.21
250;BME280;109;19.806;-70.704;2023-05-17T08:52:32;101212.44;;;23.99;68.70
250;BME280;109;19.806;-70.704;2023-05-17T08:55:01;101222.88;;;24.05;68.99
250;BME280;109;19.806;-70.704;2023-05-17T08:57:37;101213.56;;;23.94;68.95
250;BME280;109;19.806;-70.704;2023-05-17T09:00:05;101224.41;;;23.91;69.04
250;BME280;109;19.806;-70.704;2023-05-17T09:02:48;101230.00;;;23.85;68.23
250;BME280;109;19.806;-70.704;2023-05-17T09:05:15;101228.66;;;23.75;68.49
250;BME280;109;19.806;-70.704;2023-05-17T09:07:48;101238.66;;;23.69;68.78
250;BME280;109;19.806;-70.704;2023-05-17T09:10:15;101236.84;;;23.70;69.02
250;BME280;109;19.806;-70.704;2023-05-17T09:12:48;101229.72;;;23.70;69.30
250;BME280;109;19.806;-70.704;2023-05-17T09:15:17;101222.16;;;23.60;69.50
250;BME280;109;19.806;-70.704;2023-05-17T09:17:54;101222.84;;;23.65;69.04
250;BME280;109;19.806;-70.704;2023-05-17T09:20:30;101216.47;;;23.67;69.38
250;BME280;109;19.806;-70.704;2023-05-17T09:23:10;101222.56;;;23.71;69.41
250;BME280;109;19.806;-70.704;2023-05-17T09:25:47;101210.88;;;23.74;69.25
250;BME280;109;19.806;-70.704;2023-05-17T09:28:17;101223.50;;;23.70;69.21
250;BME280;109;19.806;-70.704;2023-05-17T09:31:05;101228.91;;;23.68;69.33
250;BME280;109;19.806;-70.704;2023-05-17T09:33:46;101224.44;;;23.69;69.26
250;BME280;109;19.806;-70.704;2023-05-17T09:36:22;101228.19;;;23.65;69.01
250;BME280;109;19.806;-70.704;2023-05-17T09:41:28;101221.41;;;23.55;69.26
250;BME280;109;19.806;-70.704;2023-05-17T09:44:09;101219.56;;;23.57;69.24
250;BME280;109;19.806;-70.704;2023-05-17T09:46:56;101219.84;;;23.51;69.57
250;BME280;109;19.806;-70.704;2023-05-17T09:49:30;101225.19;;;23.51;69.56
250;BME280;109;19.806;-70.704;2023-05-17T09:51:57;101223.44;;;23.50;69.31
250;BME280;109;19.806;-70.704;2023-05-17T09:54:37;101232.84;;;23.60;69.37
250;BME280;109;19.806;-70.704;2023-05-17T09:57:12;101243.66;;;23.55;69.38
250;BME280;109;19.806;-70.704;2023-05-17T09:59:39;101248.09;;;23.34;69.88
250;BME280;109;19.806;-70.704;2023-05-17T10:02:19;101253.31;;;23.38;69.56
250;BME280;109;19.806;-70.704;2023-05-17T10:04:55;101248.59;;;23.44;69.20
250;BME280;109;19.806;-70.704;2023-05-17T10:07:24;101228.84;;;23.48;69.19
250;BME280;109;19.806;-70.704;2023-05-17T10:09:57;101232.00;;;23.36;69.87
250;BME280;109;19.806;-70.704;2023-05-17T10:12:27;101241.25;;;23.49;69.54
250;BME280;109;19.806;-70.704;2023-05-17T10:15:04;101247.25;;;23.54;69.36
250;BME280;109;19.806;-70.704;2023-05-17T10:17:31;101255.16;;;23.57;69.21
250;BME280;109;19.806;-70.704;2023-05-17T10:20:05;101258.66;;;23.38;69.38
250;BME280;109;19.806;-70.704;2023-05-17T10:22:41;101255.72;;;23.44;68.88
250;BME280;109;19.806;-70.704;2023-05-17T10:25:14;101273.69;;;23.40;68.90
250;BME280;109;19.806;-70.704;2023-05-17T10:27:41;101281.50;;;23.45;68.56
250;BME280;109;19.806;-70.704;2023-05-17T10:30:16;101280.16;;;23.56;68.58
250;BME280;109;19.806;-70.704;2023-05-17T10:33:14;101273.16;;;23.54;68.51
250;BME280;109;19.806;-70.704;2023-05-17T10:36:03;101280.16;;;23.56;68.05
250;BME280;109;19.806;-70.704;2023-05-17T10:38:38;101290.47;;;23.67;68.18
250;BME280;109;19.806;-70.704;2023-05-17T10:41:05;101291.00;;;23.75;68.17
250;BME280;109;19.806;-70.704;2023-05-17T10:43:40;101292.69;;;23.78;67.77
250;BME280;109;19.806;-70.704;2023-05-17T10:46:18;101285.78;;;23.72;68.04
250;BME280;109;19.806;-70.704;2023-05-17T10:48:57;101295.41;;;23.76;67.86
250;BME280;109;19.806;-70.704;2023-05-17T10:51:31;101302.06;;;23.88;68.00
250;BME280;109;19.806;-70.704;2023-05-17T10:54:11;101307.22;;;23.92;67.50
250;BME280;109;19.806;-70.704;2023-05-17T10:56:49;101316.19;;;23.91;67.26
250;BME280;109;19.806;-70.704;2023-05-17T10:59:27;101319.50;;;23.96;67.33
250;BME280;109;19.806;-70.704;2023-05-17T11:09:50;101319.06;;;24.29;66.49
250;BME280;109;19.806;-70.704;2023-05-17T11:12:33;101333.63;;;24.22;66.73
250;BME280;109;19.806;-70.704;2023-05-17T11:15:11;101322.88;;;24.23;66.70
250;BME280;109;19.806;-70.704;2023-05-17T11:25:30;101332.81;;;24.20;66.09
250;BME280;109;19.806;-70.704;2023-05-17T11:27:58;101332.16;;;24.35;65.85
250;BME280;109;19.806;-70.704;2023-05-17T11:30:29;101330.97;;;24.42;65.86
250;BME280;109;19.806;-70.704;2023-05-17T11:33:06;101328.34;;;24.61;65.40
250;BME280;109;19.806;-70.704;2023-05-17T11:35:36;101322.50;;;24.71;65.27
250;BME280;109;19.806;-70.704;2023-05-17T11:40:40;101329.91;;;24.87;65.28
250;BME280;109;19.806;-70.704;2023-05-17T11:43:11;101327.84;;;25.12;65.37
250;BME280;109;19.806;-70.704;2023-05-17T11:45:46;101324.53;;;25.07;66.23
250;BME280;109;19.806;-70.704;2023-05-17T11:48:14;101329.19;;;25.41;65.63
250;BME280;109;19.806;-70.704;2023-05-17T11:50:43;101332.84;;;25.76;65.12
250;BME280;109;19.806;-70.704;2023-05-17T11:53:10;101333.13;;;25.89;64.28
250;BME280;109;19.806;-70.704;2023-05-17T11:55:39;101338.78;;;26.19;63.60
250;BME280;109;19.806;-70.704;2023-05-17T11:58:15;101344.66;;;26.27;63.38
250;BME280;109;19.806;-70.704;2023-05-17T12:00:43;101344.97;;;26.38;63.69
250;BME280;109;19.806;-70.704;2023-05-17T12:03:21;101349.88;;;26.64;62.96
250;BME280;109;19.806;-70.704;2023-05-17T12:06:05;101353.81;;;26.74;62.57
250;BME280;109;19.806;-70.704;2023-05-17T12:08:33;101352.44;;;26.83;61.68
250;BME280;109;19.806;-70.704;2023-05-17T12:11:00;101356.38;;;26.93;61.44
250;BME280;109;19.806;-70.704;2023-05-17T12:13:28;101365.84;;;27.33;60.75
250;BME280;109;19.806;-70.704;2023-05-17T12:15:57;101362.34;;;27.48;60.75
250;BME280;109;19.806;-70.704;2023-05-17T12:18:37;101360.84;;;27.59;60.08
250;BME280;109;19.806;-70.704;2023-05-17T12:21:05;101368.16;;;27.57;59.93
250;BME280;109;19.806;-70.704;2023-05-17T12:23:37;101376.44;;;27.36;59.89
250;BME280;109;19.806;-70.704;2023-05-17T12:26:09;101382.84;;;27.34;59.89
250;BME280;109;19.806;-70.704;2023-05-17T12:28:38;101374.94;;;27.15;60.85
250;BME280;109;19.806;-70.704;2023-05-17T12:31:09;101381.56;;;27.08;60.08
250;BME280;109;19.806;-70.704;2023-05-17T12:33:38;101373.22;;;26.97;60.46
250;BME280;109;19.806;-70.704;2023-05-17T12:36:08;101379.03;;;27.05;60.45
250;BME280;109;19.806;-70.704;2023-05-17T12:38:36;101376.69;;;26.99;59.33
250;BME280;109;19.806;-70.704;2023-05-17T12:41:04;101380.03;;;27.19;59.26
250;BME280;109;19.806;-70.704;2023-05-17T12:43:35;101378.34;;;27.34;59.17
250;BME280;109;19.806;-70.704;2023-05-17T12:46:05;101382.50;;;27.40;59.16
250;BME280;109;19.806;-70.704;2023-05-17T12:48:37;101387.25;;;27.68;59.57
250;BME280;109;19.806;-70.704;2023-05-17T12:51:15;101384.31;;;27.57;59.40
250;BME280;109;19.806;-70.704;2023-05-17T12:53:55;101384.56;;;27.68;58.84
250;BME280;109;19.806;-70.704;2023-05-17T12:56:25;101380.13;;;27.67;58.31
250;BME280;109;19.806;-70.704;2023-05-17T13:01:37;101383.09;;;27.78;59.03
250;BME280;109;19.806;-70.704;2023-05-17T13:04:04;101382.13;;;27.63;58.60
250;BME280;109;19.806;-70.704;2023-05-17T13:06:55;101381.19;;;27.31;59.74
250;BME280;109;19.806;-70.704;2023-05-17T13:09:24;101385.50;;;27.18;59.90
250;BME280;109;19.806;-70.704;2023-05-17T13:11:54;101387.22;;;27.19;60.25
250;BME280;109;19.806;-70.704;2023-05-17T13:14:44;101394.47;;;27.34;60.28
250;BME280;109;19.806;-70.704;2023-05-17T13:17:34;101392.31;;;27.41;59.69
250;BME280;109;19.806;-70.704;2023-05-17T13:20:01;101392.19;;;27.60;59.53
250;BME280;109;19.806;-70.704;2023-05-17T13:22:27;101394.69;;;27.63;59.46
250;BME280;109;19.806;-70.704;2023-05-17T13:24:54;101393.69;;;27.81;59.70
250;BME280;109;19.806;-70.704;2023-05-17T13:27:21;101402.44;;;27.69;59.83
250;BME280;109;19.806;-70.704;2023-05-17T13:29:47;101398.97;;;27.67;58.89
250;BME280;109;19.806;-70.704;2023-05-17T13:32:14;101408.56;;;27.71;59.18
250;BME280;109;19.806;-70.704;2023-05-17T13:34:40;101396.88;;;27.72;59.99
250;BME280;109;19.806;-70.704;2023-05-17T13:37:07;101395.81;;;27.59;59.28
250;BME280;109;19.806;-70.704;2023-05-17T13:39:34;101396.09;;;27.54;59.58
250;BME280;109;19.806;-70.704;2023-05-17T13:42:01;101393.50;;;27.68;60.15
250;BME280;109;19.806;-70.704;2023-05-17T13:44:28;101387.94;;;27.71;59.49
250;BME280;109;19.806;-70.704;2023-05-17T13:46:55;101382.53;;;27.71;58.72
250;BME280;109;19.806;-70.704;2023-05-17T13:49:22;101386.72;;;27.77;60.21
250;BME280;109;19.806;-70.704;2023-05-17T13:51:48;101387.44;;;27.80;59.76
250;BME280;109;19.806;-70.704;2023-05-17T13:54:15;101384.66;;;27.82;59.43
250;BME280;109;19.806;-70.704;2023-05-17T13:56:42;101383.50;;;27.70;59.91
250;BME280;109;19.806;-70.704;2023-05-17T13:59:08;101389.31;;;27.94;60.02
250;BME280;109;19.806;-70.704;2023-05-17T14:01:35;101385.31;;;27.85;59.84
250;BME280;109;19.806;-70.704;2023-05-17T14:04:01;101376.38;;;27.85;59.86
250;BME280;109;19.806;-70.704;2023-05-17T14:06:28;101372.75;;;27.86;59.38
250;BME280;109;19.806;-70.704;2023-05-17T14:08:55;101364.50;;;27.73;60.41